Terminal Aerodrome Forecast
Issued by NWS Upton, NY

Home | Current Version | Previous Version | Text Only | Print | Product List | Glossary On
Versions: 1 2 3 4 5 6 7 8 9 10 11 12 13 14 15 16 17 18 19 20 21 22 23 24 25 26 27 28 29 30 31 32
000
FTUS41 KOKX 031930 AAA
TAFLGA
TAF AMD
KLGA 031930Z 0320/0418 VRB06KT P6SM BKN250
     FM032100 18010KT P6SM SCT250
     FM040200 15005KT P6SM BKN200
     FM040800 08007KT P6SM OVC100
     FM041400 06010G14KT P6SM SCT035 OVC060 PROB30 0414/0418 5SM -RA
      BKN035=

USA.gov is the U.S. government's official web portal to all federal, state and local government web resources and services.